Time;durP1;ratioP1;P1;durP2;ratioP2;P2;SDS_P1;SDS_P2;PMS_P1;PMS_P2;Temp;Humidity;BMP_temperature;BMP_pressure;BME280_temperature;BME280_humidity;BME280_pressure;Samples;Min_cycle;Max_cycle;Signal;HPM_P1;HPM_P2
2023/12/14 00:01:10;;;;;;;1.80;0.32;;;;;;;;;;5127893;28;20074;-61
2023/12/14 00:03:41;;;;;;;1.38;0.43;;;;;;;;;;5150257;28;20755;-65
2023/12/14 00:06:13;;;;;;;0.83;0.23;;;;;;;;;;5132413;28;20390;-66
2023/12/14 00:08:44;;;;;;;2.15;0.30;;;;;;;;;;5126864;28;20281;-65
2023/12/14 00:11:15;;;;;;;1.13;0.45;;;;;;;;;;5142182;28;20486;-65
2023/12/14 00:13:46;;;;;;;2.25;0.60;;;;;;;;;;5125750;28;20039;-67
2023/12/14 00:16:17;;;;;;;2.15;0.30;;;;;;;;;;5126915;28;20438;-70
2023/12/14 00:18:49;;;;;;;2.20;0.50;;;;;;;;;;5129383;28;20127;-69
2023/12/14 00:21:20;;;;;;;1.10;0.40;;;;;;;;;;5170172;28;20542;-67
2023/12/14 00:23:51;;;;;;;0.63;0.25;;;;;;;;;;5159566;28;20047;-68
2023/12/14 00:26:22;;;;;;;1.02;0.30;;;;;;;;;;5143237;28;20046;-67
2023/12/14 00:28:53;;;;;;;1.40;0.20;;;;;;;;;;5127158;28;20133;-64
2023/12/14 00:31:25;;;;;;;0.98;0.60;;;;;;;;;;5142830;28;20101;-66
2023/12/14 00:33:56;;;;;;;0.75;0.20;;;;;;;;;;5172666;28;20334;-66
2023/12/14 00:36:28;;;;;;;1.30;0.20;;;;;;;;;;5127099;28;20394;-64
2023/12/14 00:38:59;;;;;;;1.73;0.35;;;;;;;;;;5127617;28;20575;-65
2023/12/14 00:41:30;;;;;;;0.82;0.20;;;;;;;;;;5127227;28;20511;-65
2023/12/14 00:44:02;;;;;;;1.65;0.28;;;;;;;;;;5150516;28;20047;-65
2023/12/14 00:46:33;;;;;;;1.33;0.50;;;;;;;;;;5142766;28;20050;-65
2023/12/14 00:49:04;;;;;;;2.30;0.38;;;;;;;;;;5143106;28;20042;-66
2023/12/14 00:51:35;;;;;;;1.92;0.57;;;;;;;;;;5126699;28;20030;-63
2023/12/14 00:54:06;;;;;;;2.70;0.50;;;;;;;;;;5126516;28;20045;-63
2023/12/14 00:56:37;;;;;;;2.15;0.40;;;;;;;;;;5142650;28;20454;-64
2023/12/14 00:59:08;;;;;;;0.88;0.40;;;;;;;;;;5142607;28;20086;-63
2023/12/14 01:01:40;;;;;;;1.30;0.40;;;;;;;;;;5126640;28;20449;-64
2023/12/14 01:04:11;;;;;;;1.02;0.45;;;;;;;;;;5142787;28;20501;-64
2023/12/14 01:06:42;;;;;;;0.98;0.38;;;;;;;;;;5126723;28;20410;-64
2023/12/14 01:09:13;;;;;;;0.73;0.43;;;;;;;;;;5142824;28;20397;-64
2023/12/14 01:11:44;;;;;;;0.73;0.30;;;;;;;;;;5125837;28;20035;-63
2023/12/14 01:14:15;;;;;;;2.30;0.60;;;;;;;;;;5142442;28;20462;-62
2023/12/14 01:16:46;;;;;;;1.60;0.40;;;;;;;;;;5126035;28;20117;-62
2023/12/14 01:19:18;;;;;;;1.50;0.40;;;;;;;;;;5142486;28;20157;-62
2023/12/14 01:21:49;;;;;;;2.75;0.45;;;;;;;;;;5149179;28;20046;-62
2023/12/14 01:24:20;;;;;;;3.25;0.40;;;;;;;;;;5149090;28;20053;-65
2023/12/14 01:26:51;;;;;;;1.27;0.40;;;;;;;;;;5126524;28;20042;-65
2023/12/14 01:29:22;;;;;;;0.73;0.30;;;;;;;;;;5142284;28;20039;-64
2023/12/14 01:31:53;;;;;;;2.55;0.40;;;;;;;;;;5126264;28;20039;-64
2023/12/14 01:34:24;;;;;;;1.20;0.30;;;;;;;;;;5141441;28;20070;-65
2023/12/14 01:36:55;;;;;;;0.98;0.43;;;;;;;;;;5137261;28;20034;-64
2023/12/14 01:39:26;;;;;;;4.03;0.50;;;;;;;;;;5142562;28;20470;-64
2023/12/14 01:41:58;;;;;;;1.40;0.50;;;;;;;;;;5141954;28;20058;-63
2023/12/14 01:44:29;;;;;;;2.20;0.43;;;;;;;;;;5141643;28;20047;-64
2023/12/14 01:47:00;;;;;;;1.63;0.95;;;;;;;;;;5125834;28;20047;-63
2023/12/14 01:49:31;;;;;;;1.40;0.30;;;;;;;;;;5125448;28;20035;-61
2023/12/14 01:52:02;;;;;;;0.77;0.40;;;;;;;;;;5126033;28;20437;-62
2023/12/14 01:54:33;;;;;;;0.50;0.20;;;;;;;;;;5142102;28;20039;-66
2023/12/14 01:57:05;;;;;;;0.40;0.25;;;;;;;;;;5126190;28;20387;-62
2023/12/14 01:59:36;;;;;;;1.27;0.30;;;;;;;;;;5141566;28;20119;-63
2023/12/14 02:02:08;;;;;;;1.35;0.22;;;;;;;;;;5126063;28;20133;-62
2023/12/14 02:04:40;;;;;;;3.42;0.88;;;;;;;;;;5125997;28;20382;-61
2023/12/14 02:07:11;;;;;;;2.83;0.80;;;;;;;;;;5125239;28;20177;-61
2023/12/14 02:09:42;;;;;;;0.63;0.30;;;;;;;;;;5125593;28;20035;-61
2023/12/14 02:12:13;;;;;;;2.47;0.63;;;;;;;;;;5125702;28;20047;-61
2023/12/14 02:14:44;;;;;;;1.00;0.20;;;;;;;;;;5125812;28;20046;-62
2023/12/14 02:17:15;;;;;;;0.73;0.32;;;;;;;;;;5142121;28;20486;-62
2023/12/14 02:19:46;;;;;;;3.58;0.40;;;;;;;;;;5146262;28;20431;-62
2023/12/14 02:22:18;;;;;;;1.10;0.30;;;;;;;;;;5149702;28;20045;-61
2023/12/14 02:24:50;;;;;;;0.50;0.20;;;;;;;;;;5154720;28;20561;-61
2023/12/14 02:27:21;;;;;;;2.05;0.90;;;;;;;;;;5119454;28;20121;-62
2023/12/14 02:29:52;;;;;;;1.92;0.35;;;;;;;;;;5138162;28;20100;-62
2023/12/14 02:32:23;;;;;;;1.35;0.38;;;;;;;;;;5141321;28;20045;-62
2023/12/14 02:34:55;;;;;;;0.80;0.40;;;;;;;;;;5125783;28;20146;-63
2023/12/14 02:37:26;;;;;;;0.77;0.40;;;;;;;;;;5145271;28;20046;-63
2023/12/14 02:39:57;;;;;;;3.92;0.30;;;;;;;;;;5129360;28;20042;-63
2023/12/14 02:42:28;;;;;;;2.05;0.30;;;;;;;;;;5128519;28;20037;-63
2023/12/14 02:45:00;;;;;;;1.05;0.20;;;;;;;;;;5155108;28;20048;-64
2023/12/14 02:47:31;;;;;;;2.17;0.38;;;;;;;;;;5146550;28;20467;-64
2023/12/14 02:50:03;;;;;;;1.63;0.35;;;;;;;;;;5145585;28;20500;-64
2023/12/14 02:52:34;;;;;;;2.55;0.47;;;;;;;;;;5145559;28;20375;-66
2023/12/14 02:55:05;;;;;;;0.82;0.30;;;;;;;;;;5128968;28;20133;-67
2023/12/14 02:57:37;;;;;;;1.42;0.40;;;;;;;;;;5128790;28;20086;-67
2023/12/14 03:00:08;;;;;;;0.80;0.30;;;;;;;;;;5128130;28;20070;-65
2023/12/14 03:02:39;;;;;;;2.80;0.52;;;;;;;;;;5129053;28;20434;-66
2023/12/14 03:05:11;;;;;;;1.42;0.50;;;;;;;;;;5144840;28;20089;-65
2023/12/14 03:07:42;;;;;;;1.65;0.40;;;;;;;;;;5144537;28;20047;-65
2023/12/14 03:10:13;;;;;;;1.20;0.30;;;;;;;;;;5161092;28;20479;-66
2023/12/14 03:12:44;;;;;;;2.85;0.85;;;;;;;;;;5144226;28;20488;-66
2023/12/14 03:15:18;;;;;;;1.38;0.32;;;;;;;;;;5128891;28;20039;-64
2023/12/14 03:17:50;;;;;;;0.90;0.30;;;;;;;;;;5128298;28;20070;-63
2023/12/14 03:20:21;;;;;;;1.17;0.43;;;;;;;;;;5144450;28;20047;-66
2023/12/14 03:22:52;;;;;;;1.02;0.40;;;;;;;;;;5144239;28;20051;-66
2023/12/14 03:25:23;;;;;;;1.67;0.40;;;;;;;;;;5129172;28;20135;-65
2023/12/14 03:27:54;;;;;;;1.63;0.45;;;;;;;;;;5146735;28;20121;-66
2023/12/14 03:30:26;;;;;;;1.15;0.40;;;;;;;;;;5144447;28;20047;-66
2023/12/14 03:32:58;;;;;;;2.08;0.40;;;;;;;;;;5128542;28;20122;-65
2023/12/14 03:35:29;;;;;;;1.27;0.60;;;;;;;;;;5144409;28;20090;-65
2023/12/14 03:38:00;;;;;;;1.40;0.35;;;;;;;;;;5128257;28;20039;-65
2023/12/14 03:40:32;;;;;;;2.75;0.50;;;;;;;;;;5127971;28;20047;-66
2023/12/14 03:43:04;;;;;;;0.85;0.40;;;;;;;;;;5144533;28;20034;-64
2023/12/14 03:45:35;;;;;;;1.95;0.65;;;;;;;;;;5128074;28;20042;-66
2023/12/14 03:48:06;;;;;;;1.00;0.50;;;;;;;;;;5127629;28;20066;-65
2023/12/14 03:50:37;;;;;;;1.73;0.63;;;;;;;;;;5144451;28;20126;-65
2023/12/14 03:53:09;;;;;;;2.30;0.70;;;;;;;;;;5144013;28;20053;-65
2023/12/14 03:55:40;;;;;;;4.60;0.90;;;;;;;;;;5127525;28;20035;-65
2023/12/14 03:58:11;;;;;;;1.90;0.82;;;;;;;;;;5129533;28;20047;-66
2023/12/14 04:00:42;;;;;;;1.50;0.70;;;;;;;;;;5144175;28;20501;-67
2023/12/14 04:03:13;;;;;;;3.83;0.80;;;;;;;;;;5144183;28;20042;-65
2023/12/14 04:05:44;;;;;;;1.70;0.70;;;;;;;;;;5128011;28;20049;-66
2023/12/14 04:08:15;;;;;;;1.73;0.85;;;;;;;;;;5143123;28;20045;-62
2023/12/14 04:10:47;;;;;;;1.08;0.60;;;;;;;;;;5127804;28;20043;-62
2023/12/14 04:13:18;;;;;;;1.92;0.70;;;;;;;;;;5143713;28;20437;-63
2023/12/14 04:15:49;;;;;;;1.88;0.50;;;;;;;;;;5139359;28;20070;-62
2023/12/14 04:18:20;;;;;;;1.67;0.60;;;;;;;;;;5127437;28;20051;-63
2023/12/14 04:20:51;;;;;;;2.03;0.80;;;;;;;;;;5143902;28;20043;-65
2023/12/14 04:23:23;;;;;;;3.45;0.93;;;;;;;;;;5144039;28;20046;-63
2023/12/14 04:25:54;;;;;;;1.98;0.60;;;;;;;;;;5143849;28;20049;-63
2023/12/14 04:28:25;;;;;;;2.72;0.75;;;;;;;;;;5127564;28;20070;-62
2023/12/14 04:30:56;;;;;;;5.00;1.10;;;;;;;;;;5127551;28;20389;-63
2023/12/14 04:33:27;;;;;;;4.22;0.80;;;;;;;;;;5143611;28;20406;-62
2023/12/14 04:35:58;;;;;;;1.80;1.20;;;;;;;;;;5127310;28;20034;-62
2023/12/14 04:38:30;;;;;;;2.78;0.70;;;;;;;;;;5127674;28;20051;-62
2023/12/14 04:41:01;;;;;;;2.78;0.85;;;;;;;;;;5127066;28;20049;-62
2023/12/14 04:43:32;;;;;;;1.83;1.00;;;;;;;;;;5127164;28;20046;-62
2023/12/14 04:46:03;;;;;;;1.92;0.82;;;;;;;;;;5142921;28;20784;-62
2023/12/14 04:48:34;;;;;;;2.57;0.50;;;;;;;;;;5142918;28;20058;-62
2023/12/14 04:51:06;;;;;;;4.00;0.88;;;;;;;;;;5127029;28;20061;-62
2023/12/14 04:53:37;;;;;;;2.53;0.90;;;;;;;;;;5142905;28;20050;-62
2023/12/14 04:56:11;;;;;;;3.05;1.05;;;;;;;;;;5143029;28;20034;-62
2023/12/14 04:58:43;;;;;;;3.25;0.60;;;;;;;;;;5142280;28;20417;-62
2023/12/14 05:01:14;;;;;;;7.00;1.45;;;;;;;;;;5143168;28;20073;-62
2023/12/14 05:03:45;;;;;;;1.70;0.90;;;;;;;;;;5126417;28;20043;-61
2023/12/14 05:06:16;;;;;;;1.08;0.82;;;;;;;;;;5126924;28;20089;-62
2023/12/14 05:08:47;;;;;;;3.22;0.82;;;;;;;;;;5146761;28;20114;-62
2023/12/14 05:11:18;;;;;;;3.80;1.10;;;;;;;;;;5127154;28;20490;-62
2023/12/14 05:13:50;;;;;;;4.07;0.90;;;;;;;;;;5125951;28;20158;-61
2023/12/14 05:16:21;;;;;;;3.70;1.00;;;;;;;;;;5126026;28;20041;-62
2023/12/14 05:18:52;;;;;;;2.90;0.90;;;;;;;;;;5132857;28;20081;-63
2023/12/14 05:21:23;;;;;;;4.13;1.00;;;;;;;;;;5161140;28;20047;-63
2023/12/14 05:23:54;;;;;;;3.17;1.35;;;;;;;;;;5126183;28;20090;-64
2023/12/14 05:26:25;;;;;;;2.42;0.88;;;;;;;;;;5124274;28;20134;-63
2023/12/14 05:28:57;;;;;;;2.38;0.80;;;;;;;;;;5142105;28;20046;-62
2023/12/14 05:31:28;;;;;;;1.85;0.63;;;;;;;;;;5142132;28;20110;-63
2023/12/14 05:33:59;;;;;;;4.00;0.55;;;;;;;;;;5126121;28;20410;-63
2023/12/14 05:36:30;;;;;;;1.75;0.52;;;;;;;;;;5142768;28;20555;-65
2023/12/14 05:39:03;;;;;;;3.03;0.75;;;;;;;;;;5142301;28;20097;-64
2023/12/14 05:41:39;;;;;;;1.25;0.68;;;;;;;;;;5142185;28;20043;-64
2023/12/14 05:44:11;;;;;;;2.85;0.95;;;;;;;;;;5141755;28;20041;-62
2023/12/14 05:46:42;;;;;;;1.38;0.50;;;;;;;;;;5125039;28;20085;-62
2023/12/14 05:49:13;;;;;;;4.57;0.85;;;;;;;;;;5141177;28;20394;-63
2023/12/14 05:51:44;;;;;;;3.00;0.57;;;;;;;;;;5125549;28;20050;-65
2023/12/14 05:54:16;;;;;;;1.02;0.40;;;;;;;;;;5125397;28;20031;-63
2023/12/14 05:56:47;;;;;;;0.73;0.32;;;;;;;;;;5142053;28;20051;-64
2023/12/14 05:59:18;;;;;;;1.95;1.10;;;;;;;;;;5142104;28;20062;-63
2023/12/14 06:01:49;;;;;;;3.20;0.70;;;;;;;;;;5142114;28;20557;-62
2023/12/14 06:04:20;;;;;;;1.80;0.60;;;;;;;;;;5132819;28;20042;-62
2023/12/14 06:06:51;;;;;;;2.13;0.80;;;;;;;;;;5142120;28;20043;-63
2023/12/14 06:09:26;;;;;;;3.15;0.85;;;;;;;;;;5142906;28;20043;-63
2023/12/14 06:11:57;;;;;;;3.75;0.88;;;;;;;;;;5146367;28;20038;-63
2023/12/14 06:14:28;;;;;;;2.03;0.70;;;;;;;;;;5145939;28;20046;-63
2023/12/14 06:16:59;;;;;;;1.80;0.80;;;;;;;;;;5146294;28;20061;-63
2023/12/14 06:19:30;;;;;;;2.03;0.57;;;;;;;;;;5130929;28;20082;-63
2023/12/14 06:22:01;;;;;;;1.55;0.60;;;;;;;;;;5129935;28;20046;-62
2023/12/14 06:24:32;;;;;;;2.63;0.60;;;;;;;;;;5145888;28;20078;-63
2023/12/14 06:27:04;;;;;;;3.33;0.90;;;;;;;;;;5140996;28;20382;-63
2023/12/14 06:29:35;;;;;;;1.73;0.70;;;;;;;;;;5147265;28;20043;-63
2023/12/14 06:32:06;;;;;;;3.17;0.77;;;;;;;;;;5129925;28;20116;-63
2023/12/14 06:34:37;;;;;;;2.97;0.95;;;;;;;;;;5145557;28;20042;-63
2023/12/14 06:37:09;;;;;;;3.65;1.00;;;;;;;;;;5146093;28;20109;-63
2023/12/14 06:39:43;;;;;;;3.00;1.00;;;;;;;;;;5133780;28;20076;-63
2023/12/14 06:42:14;;;;;;;7.22;1.20;;;;;;;;;;5143740;28;20137;-63
2023/12/14 06:44:45;;;;;;;2.70;1.17;;;;;;;;;;5145902;28;20331;-63
2023/12/14 06:47:16;;;;;;;5.88;1.92;;;;;;;;;;5145700;28;20039;-62
2023/12/14 06:49:48;;;;;;;2.65;1.05;;;;;;;;;;5145855;28;20047;-63
2023/12/14 06:52:19;;;;;;;5.35;1.60;;;;;;;;;;5145383;28;20054;-64
2023/12/14 06:54:50;;;;;;;3.95;1.38;;;;;;;;;;5145998;28;20422;-63
2023/12/14 06:57:21;;;;;;;3.20;1.83;;;;;;;;;;5145901;28;20129;-63
2023/12/14 06:59:52;;;;;;;2.85;1.42;;;;;;;;;;5144832;28;20058;-62
2023/12/14 07:02:24;;;;;;;4.80;1.40;;;;;;;;;;5129527;28;20463;-63
2023/12/14 07:04:55;;;;;;;2.58;1.02;;;;;;;;;;5130492;28;20108;-63
2023/12/14 07:07:26;;;;;;;3.35;1.30;;;;;;;;;;5161925;28;20098;-63
2023/12/14 07:09:57;;;;;;;5.93;2.30;;;;;;;;;;5128804;28;20462;-63
2023/12/14 07:12:28;;;;;;;5.50;1.50;;;;;;;;;;5160894;28;20050;-63
2023/12/14 07:14:59;;;;;;;5.50;1.73;;;;;;;;;;5129247;28;20043;-63
2023/12/14 07:17:30;;;;;;;3.67;1.40;;;;;;;;;;5128398;28;20097;-64
2023/12/14 07:20:02;;;;;;;6.25;1.73;;;;;;;;;;5131287;28;20049;-63
2023/12/14 07:22:33;;;;;;;4.50;1.65;;;;;;;;;;5128275;28;20490;-63
2023/12/14 07:25:04;;;;;;;3.10;1.55;;;;;;;;;;5128149;28;20042;-63
2023/12/14 07:27:36;;;;;;;4.90;1.95;;;;;;;;;;5144532;28;20047;-63
2023/12/14 07:30:09;;;;;;;3.78;1.90;;;;;;;;;;5128514;28;20242;-63
2023/12/14 07:32:40;;;;;;;3.80;1.75;;;;;;;;;;5147286;28;20042;-63
2023/12/14 07:35:11;;;;;;;5.50;1.80;;;;;;;;;;5170712;28;20479;-63
2023/12/14 07:37:42;;;;;;;5.82;1.63;;;;;;;;;;5128203;28;20652;-62
2023/12/14 07:40:13;;;;;;;5.00;1.85;;;;;;;;;;5144511;28;20039;-64
2023/12/14 07:42:44;;;;;;;5.60;1.70;;;;;;;;;;5156738;28;20043;-63
2023/12/14 07:45:15;;;;;;;4.78;2.13;;;;;;;;;;5128101;28;20054;-62
2023/12/14 07:47:46;;;;;;;4.55;2.15;;;;;;;;;;5128280;28;20513;-65
2023/12/14 07:50:19;;;;;;;10.63;1.90;;;;;;;;;;5144157;28;20090;-64
2023/12/14 07:52:50;;;;;;;6.30;2.05;;;;;;;;;;5128160;28;20097;-63
2023/12/14 07:55:21;;;;;;;4.50;1.58;;;;;;;;;;5127440;28;20129;-64
2023/12/14 07:57:52;;;;;;;6.38;1.65;;;;;;;;;;5143287;28;20054;-63
2023/12/14 08:00:23;;;;;;;4.70;1.80;;;;;;;;;;5131881;28;20061;-62
2023/12/14 08:02:54;;;;;;;6.78;1.80;;;;;;;;;;5152764;28;20042;-63
2023/12/14 08:05:26;;;;;;;4.35;1.85;;;;;;;;;;5128229;28;20035;-62
2023/12/14 08:07:57;;;;;;;9.82;2.03;;;;;;;;;;5144939;28;20051;-61
2023/12/14 08:10:28;;;;;;;6.35;2.67;;;;;;;;;;5130948;28;20050;-60
2023/12/14 08:12:59;;;;;;;5.10;2.00;;;;;;;;;;5127922;28;20042;-61
2023/12/14 08:15:30;;;;;;;5.28;1.67;;;;;;;;;;5152128;28;20092;-62
2023/12/14 08:18:02;;;;;;;5.97;2.13;;;;;;;;;;5129076;28;20429;-62
2023/12/14 08:20:33;;;;;;;5.00;1.98;;;;;;;;;;5143113;28;20485;-62
2023/12/14 08:23:04;;;;;;;4.65;1.80;;;;;;;;;;5142810;28;20053;-62
2023/12/14 08:25:35;;;;;;;5.40;2.00;;;;;;;;;;5136666;28;20444;-62
2023/12/14 08:28:06;;;;;;;7.35;1.98;;;;;;;;;;5143083;28;20486;-63
2023/12/14 08:30:38;;;;;;;8.07;2.75;;;;;;;;;;5142800;28;20038;-62
2023/12/14 08:33:10;;;;;;;17.02;4.18;;;;;;;;;;5142065;28;20046;-63
2023/12/14 08:35:41;;;;;;;10.27;2.90;;;;;;;;;;5142733;28;20117;-61
2023/12/14 08:38:12;;;;;;;8.90;3.17;;;;;;;;;;5142960;28;20042;-61
2023/12/14 08:40:43;;;;;;;10.30;3.58;;;;;;;;;;5145541;28;20042;-60
2023/12/14 08:43:14;;;;;;;8.55;3.35;;;;;;;;;;5142746;28;20038;-60
2023/12/14 08:45:45;;;;;;;8.70;3.25;;;;;;;;;;5126520;28;20125;-61
2023/12/14 08:48:16;;;;;;;11.88;3.63;;;;;;;;;;5141422;28;20062;-60
2023/12/14 08:50:47;;;;;;;9.55;3.05;;;;;;;;;;5143527;28;20122;-60
2023/12/14 08:53:19;;;;;;;6.43;3.15;;;;;;;;;;5143675;28;20561;-60
2023/12/14 08:55:50;;;;;;;13.05;3.58;;;;;;;;;;5126820;28;20047;-60
2023/12/14 08:58:21;;;;;;;11.80;3.33;;;;;;;;;;5154138;28;20074;-60
2023/12/14 09:00:52;;;;;;;6.10;3.22;;;;;;;;;;5143016;28;20281;-60
2023/12/14 09:03:23;;;;;;;13.13;3.53;;;;;;;;;;5137455;28;20062;-60
2023/12/14 09:05:55;;;;;;;15.70;3.83;;;;;;;;;;5126712;28;20042;-60
2023/12/14 09:08:26;;;;;;;12.32;4.00;;;;;;;;;;5126074;28;20038;-59
2023/12/14 09:10:57;;;;;;;15.00;4.30;;;;;;;;;;5126511;28;20466;-59
2023/12/14 09:13:28;;;;;;;11.57;3.28;;;;;;;;;;5126076;28;20042;-60
2023/12/14 09:15:59;;;;;;;16.65;4.78;;;;;;;;;;5142578;28;20038;-59
2023/12/14 09:18:30;;;;;;;12.07;3.58;;;;;;;;;;5142322;28;20038;-60
2023/12/14 09:21:01;;;;;;;14.13;4.30;;;;;;;;;;5142722;28;20047;-60
2023/12/14 09:23:33;;;;;;;10.18;3.70;;;;;;;;;;5126344;28;20046;-59
2023/12/14 09:26:04;;;;;;;14.02;3.83;;;;;;;;;;5142653;28;20494;-59
2023/12/14 09:28:35;;;;;;;8.07;3.42;;;;;;;;;;5141956;28;20081;-59
2023/12/14 09:31:06;;;;;;;8.48;3.40;;;;;;;;;;5141989;28;20089;-59
2023/12/14 09:33:37;;;;;;;9.73;3.50;;;;;;;;;;5142462;28;20074;-60
2023/12/14 09:36:08;;;;;;;11.40;3.95;;;;;;;;;;5142815;28;20121;-60
2023/12/14 09:38:40;;;;;;;9.05;3.13;;;;;;;;;;5126139;28;20071;-60
2023/12/14 09:41:11;;;;;;;9.32;2.95;;;;;;;;;;5147961;28;20044;-60
2023/12/14 09:43:43;;;;;;;6.97;2.58;;;;;;;;;;5132146;28;20406;-60
2023/12/14 09:46:15;;;;;;;6.97;2.50;;;;;;;;;;5141682;28;20125;-60
2023/12/14 09:48:47;;;;;;;4.88;1.92;;;;;;;;;;5125995;28;20097;-61
2023/12/14 09:51:18;;;;;;;9.60;2.58;;;;;;;;;;5125925;28;20046;-60
2023/12/14 09:53:52;;;;;;;6.55;2.10;;;;;;;;;;5142020;28;20053;-60
2023/12/14 09:56:27;;;;;;;10.25;3.30;;;;;;;;;;5137633;28;20054;-62
2023/12/14 09:59:01;;;;;;;7.90;2.83;;;;;;;;;;5158584;28;20486;-61
2023/12/14 10:01:32;;;;;;;7.40;2.22;;;;;;;;;;5141951;28;20125;-60
2023/12/14 10:04:11;;;;;;;6.07;2.53;;;;;;;;;;5125995;28;20449;-61
2023/12/14 10:06:43;;;;;;;10.57;2.33;;;;;;;;;;5141408;28;20053;-60
2023/12/14 10:09:16;;;;;;;;;;;;;;;;;;5126346;28;20042;-60
2023/12/14 10:11:47;;;;;;;8.52;2.10;;;;;;;;;;5125868;28;19918;-60
2023/12/14 10:14:20;;;;;;;9.20;2.50;;;;;;;;;;5125882;28;20057;-60
2023/12/14 10:16:52;;;;;;;9.52;2.28;;;;;;;;;;5125832;28;20043;-60
2023/12/14 10:19:23;;;;;;;7.88;2.38;;;;;;;;;;5141900;28;20121;-62
2023/12/14 10:21:54;;;;;;;7.85;2.33;;;;;;;;;;5125847;28;20049;-61
2023/12/14 10:24:25;;;;;;;6.13;2.05;;;;;;;;;;5125413;28;20043;-61
2023/12/14 10:26:57;;;;;;;3.72;1.60;;;;;;;;;;5141970;28;20490;-61
2023/12/14 10:29:28;;;;;;;4.78;2.20;;;;;;;;;;5126178;28;20064;-61
2023/12/14 10:31:59;;;;;;;6.22;2.85;;;;;;;;;;5141999;28;20356;-60
2023/12/14 10:34:30;;;;;;;8.18;2.42;;;;;;;;;;5125692;28;20047;-61
2023/12/14 10:37:03;;;;;;;8.10;2.70;;;;;;;;;;5125520;28;20058;-60
2023/12/14 10:39:35;;;;;;;7.63;2.25;;;;;;;;;;5135623;28;20046;-60
2023/12/14 10:42:09;;;;;;;5.88;2.30;;;;;;;;;;5125157;28;20038;-60
2023/12/14 10:44:40;;;;;;;7.60;2.10;;;;;;;;;;5140983;28;20046;-62
2023/12/14 10:47:11;;;;;;;10.10;2.20;;;;;;;;;;5157251;28;20051;-62
2023/12/14 10:49:43;;;;;;;4.85;1.50;;;;;;;;;;5144294;28;20101;-60
2023/12/14 10:52:15;;;;;;;7.72;2.00;;;;;;;;;;5125523;28;20050;-60
2023/12/14 10:54:47;;;;;;;8.93;2.23;;;;;;;;;;5126174;28;20174;-60
2023/12/14 10:57:18;;;;;;;8.90;2.08;;;;;;;;;;5127792;28;20114;-60
2023/12/14 10:59:50;;;;;;;9.93;2.65;;;;;;;;;;5129307;28;20081;-60
2023/12/14 11:02:21;;;;;;;9.38;2.72;;;;;;;;;;5129107;28;20453;-61
2023/12/14 11:05:05;;;;;;;14.35;3.15;;;;;;;;;;5145330;28;20490;-61
2023/12/14 11:07:50;;;;;;;5.97;2.28;;;;;;;;;;5128942;28;20430;-60
2023/12/14 11:10:23;;;;;;;7.28;2.65;;;;;;;;;;5144897;28;20034;-61
2023/12/14 11:13:00;;;;;;;6.85;2.45;;;;;;;;;;5144788;28;20043;-62
2023/12/14 11:15:33;;;;;;;3.88;2.35;;;;;;;;;;5127943;28;20478;-61
2023/12/14 11:18:11;;;;;;;4.95;2.20;;;;;;;;;;5160989;28;20047;-60
2023/12/14 11:20:45;;;;;;;8.57;2.25;;;;;;;;;;5129176;28;20122;-60
2023/12/14 11:23:17;;;;;;;7.63;2.17;;;;;;;;;;5145855;28;20185;-60
2023/12/14 11:25:48;;;;;;;;;;;;;;;;;;5129403;28;20057;-61
2023/12/14 11:28:20;;;;;;;5.00;2.17;;;;;;;;;;5144534;28;20032;-60
2023/12/14 11:30:51;;;;;;;6.10;1.88;;;;;;;;;;5144451;28;20125;-61
2023/12/14 11:33:23;;;;;;;3.83;1.88;;;;;;;;;;5144753;28;20043;-61
2023/12/14 11:35:54;;;;;;;7.00;2.05;;;;;;;;;;5128389;28;20158;-61
2023/12/14 11:38:25;;;;;;;4.57;1.98;;;;;;;;;;5144472;28;20458;-60
2023/12/14 11:40:56;;;;;;;5.23;1.40;;;;;;;;;;5147941;28;20109;-61
2023/12/14 11:43:27;;;;;;;4.93;1.30;;;;;;;;;;5128702;28;20065;-61
2023/12/14 11:45:59;;;;;;;4.57;1.50;;;;;;;;;;5141335;28;20035;-60
2023/12/14 11:48:30;;;;;;;3.03;1.23;;;;;;;;;;5128062;28;20053;-60
2023/12/14 11:51:02;;;;;;;5.40;2.17;;;;;;;;;;5128396;28;20118;-61
2023/12/14 11:53:33;;;;;;;8.38;1.23;;;;;;;;;;5144119;28;20053;-61
2023/12/14 11:56:05;;;;;;;4.30;1.60;;;;;;;;;;5144356;28;20374;-61
2023/12/14 11:58:36;;;;;;;5.57;1.58;;;;;;;;;;5144298;28;20050;-63
2023/12/14 12:01:18;;;;;;;5.35;1.20;;;;;;;;;;5144233;28;20109;-64
2023/12/14 12:03:56;;;;;;;2.42;1.27;;;;;;;;;;5144021;28;20129;-64
2023/12/14 12:06:28;;;;;;;2.88;1.20;;;;;;;;;;5128208;28;20042;-63
2023/12/14 12:08:59;;;;;;;6.38;1.00;;;;;;;;;;5143556;28;20383;-64
2023/12/14 12:11:31;;;;;;;2.70;1.10;;;;;;;;;;5143519;28;20049;-64
2023/12/14 12:14:02;;;;;;;3.05;1.10;;;;;;;;;;5127625;28;20031;-64
2023/12/14 12:16:34;;;;;;;3.13;1.08;;;;;;;;;;5143619;28;20122;-64
2023/12/14 12:19:05;;;;;;;;;;;;;;;;;;5143613;28;20043;-64
2023/12/14 12:21:36;;;;;;;6.07;0.93;;;;;;;;;;5127466;28;19929;-63
2023/12/14 12:24:07;;;;;;;5.10;1.20;;;;;;;;;;5143364;28;20094;-64
2023/12/14 12:26:38;;;;;;;4.30;1.10;;;;;;;;;;5143944;28;20038;-63
2023/12/14 12:29:10;;;;;;;2.28;0.88;;;;;;;;;;5143387;28;20034;-63
2023/12/14 12:31:42;;;;;;;2.47;0.93;;;;;;;;;;5127272;28;20043;-64
2023/12/14 12:34:13;;;;;;;2.88;1.00;;;;;;;;;;5143487;28;20051;-63
2023/12/14 12:36:44;;;;;;;1.98;0.88;;;;;;;;;;5143250;28;20470;-63
2023/12/14 12:39:16;;;;;;;2.33;0.80;;;;;;;;;;5155954;28;20105;-63
2023/12/14 12:41:47;;;;;;;2.65;1.00;;;;;;;;;;5127192;28;20042;-63
2023/12/14 12:44:19;;;;;;;3.63;0.73;;;;;;;;;;5127128;28;20054;-64
2023/12/14 12:46:50;;;;;;;4.28;0.95;;;;;;;;;;5143634;28;20374;-63
2023/12/14 12:49:21;;;;;;;2.17;0.80;;;;;;;;;;5159580;28;20395;-64
2023/12/14 12:51:52;;;;;;;1.35;0.70;;;;;;;;;;5126624;28;20034;-64
2023/12/14 12:54:23;;;;;;;1.97;0.80;;;;;;;;;;5142899;28;20053;-64
2023/12/14 12:56:54;;;;;;;3.25;1.10;;;;;;;;;;5129988;28;20049;-64
2023/12/14 12:59:25;;;;;;;7.85;1.00;;;;;;;;;;5146207;28;20057;-63
2023/12/14 13:01:57;;;;;;;5.00;1.02;;;;;;;;;;5149408;28;20105;-63
2023/12/14 13:04:30;;;;;;;1.85;0.77;;;;;;;;;;5151097;28;20129;-63
2023/12/14 13:07:04;;;;;;;3.58;1.00;;;;;;;;;;5142103;28;20043;-63
2023/12/14 13:09:35;;;;;;;3.33;1.77;;;;;;;;;;5142570;28;20085;-63
2023/12/14 13:12:06;;;;;;;2.38;1.05;;;;;;;;;;5126375;28;20050;-62
2023/12/14 13:14:37;;;;;;;2.73;1.27;;;;;;;;;;5142409;28;20493;-62
2023/12/14 13:17:09;;;;;;;2.08;1.25;;;;;;;;;;5142872;28;20360;-62
2023/12/14 13:19:40;;;;;;;1.92;1.20;;;;;;;;;;5141940;28;20049;-62
2023/12/14 13:22:11;;;;;;;5.28;1.25;;;;;;;;;;5126382;28;20047;-62
2023/12/14 13:24:42;;;;;;;6.18;1.38;;;;;;;;;;5126856;28;20459;-62
2023/12/14 13:27:13;;;;;;;2.80;1.20;;;;;;;;;;5142627;28;20382;-63
2023/12/14 13:29:45;;;;;;;4.40;1.20;;;;;;;;;;5125848;28;20046;-63
2023/12/14 13:32:16;;;;;;;2.80;1.17;;;;;;;;;;5142426;28;20042;-62
2023/12/14 13:34:48;;;;;;;3.50;1.40;;;;;;;;;;5142482;28;20050;-64
2023/12/14 13:37:19;;;;;;;;;;;;;;;;;;5127020;28;20474;-62
2023/12/14 13:39:52;;;;;;;2.63;0.80;;;;;;;;;;5142344;28;19925;-62
2023/12/14 13:42:23;;;;;;;3.70;1.20;;;;;;;;;;5148388;28;20057;-62
2023/12/14 13:44:54;;;;;;;3.25;0.80;;;;;;;;;;5162692;28;20420;-62
2023/12/14 13:47:25;;;;;;;4.32;1.10;;;;;;;;;;5149809;28;20127;-62
2023/12/14 13:49:57;;;;;;;4.82;1.73;;;;;;;;;;5142239;28;20454;-62
2023/12/14 13:52:28;;;;;;;2.00;0.97;;;;;;;;;;5125464;28;20042;-62
2023/12/14 13:54:59;;;;;;;5.63;1.27;;;;;;;;;;5141338;28;20284;-62
2023/12/14 13:57:30;;;;;;;6.75;1.42;;;;;;;;;;5141931;28;20081;-62
2023/12/14 14:00:01;;;;;;;3.38;1.10;;;;;;;;;;5141649;28;20039;-63
2023/12/14 14:02:33;;;;;;;3.40;1.58;;;;;;;;;;5135051;28;20501;-64
2023/12/14 14:05:04;;;;;;;3.60;1.38;;;;;;;;;;5142089;28;20050;-62
2023/12/14 14:07:35;;;;;;;5.50;1.38;;;;;;;;;;5141306;28;20057;-62
2023/12/14 14:10:07;;;;;;;3.78;1.55;;;;;;;;;;5157794;28;20125;-62
2023/12/14 14:12:39;;;;;;;3.38;1.15;;;;;;;;;;5126132;28;20039;-61
2023/12/14 14:15:10;;;;;;;5.28;1.80;;;;;;;;;;5141847;28;20470;-60
2023/12/14 14:17:41;;;;;;;2.85;1.10;;;;;;;;;;5141857;28;20178;-62
2023/12/14 14:20:15;;;;;;;7.47;1.45;;;;;;;;;;5141017;28;20092;-59
2023/12/14 14:22:47;;;;;;;4.43;1.23;;;;;;;;;;5141787;28;20482;-61
2023/12/14 14:25:18;;;;;;;6.93;1.65;;;;;;;;;;5141254;28;20450;-60
2023/12/14 14:27:49;;;;;;;4.03;1.27;;;;;;;;;;5125591;28;20078;-60
2023/12/14 14:30:20;;;;;;;4.50;1.10;;;;;;;;;;5125368;28;20047;-58
2023/12/14 14:32:51;;;;;;;3.10;1.10;;;;;;;;;;5144470;28;20153;-59
2023/12/14 14:35:26;;;;;;;5.88;1.00;;;;;;;;;;5144956;28;20038;-58
2023/12/14 14:37:57;;;;;;;8.13;1.42;;;;;;;;;;5161857;28;20133;-58
2023/12/14 14:40:28;;;;;;;2.40;1.30;;;;;;;;;;5145442;28;20054;-58
2023/12/14 14:42:59;;;;;;;5.35;1.20;;;;;;;;;;5147489;28;20042;-58
2023/12/14 14:45:30;;;;;;;1.85;1.02;;;;;;;;;;5145066;28;20061;-58
2023/12/14 14:48:01;;;;;;;2.28;1.27;;;;;;;;;;5129207;28;20038;-59
2023/12/14 14:50:33;;;;;;;4.95;0.90;;;;;;;;;;5151256;28;20042;-59
2023/12/14 14:53:04;;;;;;;1.95;0.90;;;;;;;;;;5145349;28;20343;-58
2023/12/14 14:55:35;;;;;;;3.72;1.00;;;;;;;;;;5129548;28;20090;-58
2023/12/14 14:58:06;;;;;;;3.22;0.93;;;;;;;;;;5128913;28;20042;-61
2023/12/14 15:00:38;;;;;;;3.08;1.05;;;;;;;;;;5129305;28;20165;-59
2023/12/14 15:03:09;;;;;;;;;;;;;;;;;;5145658;28;20117;-59
2023/12/14 15:05:41;;;;;;;4.10;1.00;;;;;;;;;;5129240;28;20396;-58
2023/12/14 15:08:13;;;;;;;5.07;1.40;;;;;;;;;;5147751;28;20108;-58